createdAt,value
2022-10-03T00:01:09.534Z,17.70
2022-10-03T00:03:44.539Z,17.46
2022-10-03T00:06:16.446Z,18.26
2022-10-03T00:08:58.870Z,18.43
2022-10-03T00:11:33.885Z,18.65
2022-10-03T00:14:04.554Z,18.31
2022-10-03T00:16:37.417Z,18.58
2022-10-03T00:19:11.149Z,18.26
2022-10-03T00:21:49.625Z,17.70
2022-10-03T00:24:25.212Z,17.53
2022-10-03T00:26:56.842Z,17.73
2022-10-03T00:29:41.406Z,17.89
2022-10-03T00:32:22.087Z,17.86
2022-10-03T00:34:58.529Z,18.19
2022-10-03T00:37:31.679Z,18.01
2022-10-03T00:40:21.098Z,17.89
2022-10-03T00:43:27.364Z,17.62
2022-10-03T00:46:20.028Z,17.44
2022-10-03T00:49:29.673Z,17.58
2022-10-03T00:52:08.572Z,17.48
2022-10-03T00:54:52.728Z,17.60
2022-10-03T00:57:29.807Z,17.49
2022-10-03T01:00:16.091Z,17.52
2022-10-03T01:03:06.199Z,17.69
2022-10-03T01:05:46.448Z,17.48
2022-10-03T01:08:35.394Z,17.64
2022-10-03T01:11:10.051Z,17.64
2022-10-03T01:13:49.566Z,17.85
2022-10-03T01:16:23.001Z,17.66
2022-10-03T01:18:58.477Z,17.55
2022-10-03T01:21:35.029Z,17.30
2022-10-03T01:24:40.204Z,17.37
2022-10-03T01:27:09.501Z,17.37
2022-10-03T01:30:03.677Z,17.36
2022-10-03T01:32:37.749Z,16.60
2022-10-03T01:35:14.713Z,17.07
2022-10-03T01:37:51.383Z,16.74
2022-10-03T01:40:27.251Z,16.50
2022-10-03T01:43:03.955Z,16.42
2022-10-03T01:45:41.090Z,16.82
2022-10-03T01:48:13.971Z,16.68
2022-10-03T01:50:51.634Z,16.99
2022-10-03T01:53:27.107Z,16.81
2022-10-03T01:56:00.291Z,16.95
2022-10-03T01:58:32.066Z,16.85
2022-10-03T02:01:08.354Z,16.88
2022-10-03T02:03:39.398Z,16.38
2022-10-03T02:06:16.033Z,16.77
2022-10-03T02:08:51.148Z,16.67
2022-10-03T02:11:31.079Z,16.75
2022-10-03T02:14:03.139Z,16.36
2022-10-03T02:16:37.966Z,16.48
2022-10-03T02:19:10.334Z,16.77
2022-10-03T02:21:48.186Z,16.96
2022-10-03T02:24:39.672Z,16.79
2022-10-03T02:27:39.294Z,16.74
2022-10-03T02:30:13.975Z,17.39
2022-10-03T02:33:11.886Z,17.60
2022-10-03T02:36:14.790Z,17.87
2022-10-03T02:39:00.597Z,17.56
2022-10-03T02:42:02.986Z,17.66
2022-10-03T02:45:13.314Z,18.26
2022-10-03T02:48:30.790Z,18.60
2022-10-03T02:51:28.879Z,18.35
2022-10-03T02:54:30.086Z,18.89
2022-10-03T02:57:35.865Z,18.46
2022-10-03T03:00:13.608Z,17.60
2022-10-03T03:03:14.665Z,18.26
2022-10-03T03:06:33.912Z,18.19
2022-10-03T03:09:32.948Z,18.40
2022-10-03T03:12:30.510Z,18.05
2022-10-03T03:15:37.699Z,17.29
2022-10-03T03:18:11.310Z,17.65
2022-10-03T03:20:55.777Z,17.43
2022-10-03T03:23:47.089Z,16.59
2022-10-03T03:26:36.640Z,16.74
2022-10-03T03:29:12.310Z,16.82
2022-10-03T03:31:45.796Z,16.74
2022-10-03T03:34:19.158Z,16.70
2022-10-03T03:36:54.270Z,16.75
2022-10-03T03:39:41.698Z,16.71
2022-10-03T03:42:28.728Z,16.89
2022-10-03T03:45:09.904Z,16.61
2022-10-03T03:48:03.289Z,16.91
2022-10-03T03:50:59.085Z,16.80
2022-10-03T03:54:02.036Z,17.26
2022-10-03T03:56:44.307Z,17.07
2022-10-03T03:59:23.085Z,16.60
2022-10-03T04:02:04.960Z,16.70
2022-10-03T04:04:48.471Z,16.67
2022-10-03T04:07:27.127Z,16.53
2022-10-03T04:10:15.085Z,16.08
2022-10-03T04:13:01.865Z,16.41
2022-10-03T04:15:52.772Z,16.19
2022-10-03T04:18:56.601Z,16.24
2022-10-03T04:21:37.675Z,16.29
2022-10-03T04:24:34.458Z,16.34
2022-10-03T04:27:13.554Z,16.47
2022-10-03T04:29:48.276Z,16.15
2022-10-03T04:32:37.862Z,16.38
2022-10-03T04:35:17.819Z,16.13
2022-10-03T04:37:49.078Z,16.45
2022-10-03T04:40:28.191Z,16.58
2022-10-03T04:43:05.921Z,16.60
2022-10-03T04:45:47.518Z,16.79
2022-10-03T04:48:18.371Z,16.62
2022-10-03T04:50:52.831Z,17.17
2022-10-03T04:53:27.830Z,16.79
2022-10-03T04:56:04.768Z,17.16
2022-10-03T04:58:38.884Z,17.24
2022-10-03T05:01:15.206Z,17.17
2022-10-03T05:03:50.370Z,16.58
2022-10-03T05:06:29.209Z,16.58
2022-10-03T05:09:04.491Z,16.42
2022-10-03T05:11:49.429Z,17.15
2022-10-03T05:14:24.037Z,16.81
2022-10-03T05:16:58.500Z,16.48
2022-10-03T05:19:55.378Z,16.05
2022-10-03T05:22:33.901Z,15.46
2022-10-03T05:25:11.212Z,15.92
2022-10-03T05:27:44.519Z,16.25
2022-10-03T05:30:18.148Z,16.31
2022-10-03T05:32:51.377Z,16.84
2022-10-03T05:35:30.833Z,16.92
2022-10-03T05:38:23.415Z,16.91
2022-10-03T05:41:02.445Z,17.32
2022-10-03T05:43:45.502Z,16.71
2022-10-03T05:46:22.515Z,16.58
2022-10-03T05:48:59.174Z,16.70
2022-10-03T05:51:46.575Z,17.03
2022-10-03T05:54:56.270Z,17.72
2022-10-03T05:58:00.738Z,17.72
2022-10-03T06:00:35.914Z,18.23
2022-10-03T06:03:35.544Z,18.46
2022-10-03T06:06:20.981Z,17.02
2022-10-03T06:08:58.622Z,18.10
2022-10-03T06:11:59.586Z,18.18
2022-10-03T06:14:35.270Z,18.20
2022-10-03T06:17:14.598Z,18.18
2022-10-03T06:19:49.755Z,18.49
2022-10-03T06:22:45.630Z,18.86
2022-10-03T06:25:53.722Z,18.31
2022-10-03T06:28:56.328Z,18.54
2022-10-03T06:31:50.584Z,18.54
2022-10-03T06:34:41.801Z,17.88
2022-10-03T06:37:30.886Z,17.86
2022-10-03T06:40:40.081Z,17.93
2022-10-03T06:43:22.085Z,17.76
2022-10-03T06:46:23.161Z,17.87
2022-10-03T06:49:37.143Z,18.82
2022-10-03T06:52:25.281Z,18.55
2022-10-03T06:55:31.762Z,18.44
2022-10-03T06:58:23.189Z,18.49
2022-10-03T07:00:59.711Z,18.69
2022-10-03T07:03:52.573Z,18.98
2022-10-03T07:06:48.818Z,18.74
2022-10-03T07:10:07.605Z,18.32
2022-10-03T07:13:11.742Z,18.49
2022-10-03T07:16:14.247Z,18.22
2022-10-03T07:19:08.073Z,19.23
2022-10-03T07:22:05.701Z,18.71
2022-10-03T07:25:05.289Z,18.67
2022-10-03T07:27:50.995Z,18.97
2022-10-03T07:30:21.224Z,18.95
2022-10-03T07:33:25.389Z,18.99
2022-10-03T07:36:38.952Z,19.39
2022-10-03T07:39:17.926Z,19.36
2022-10-03T07:42:08.766Z,19.25
2022-10-03T07:45:02.603Z,19.89
2022-10-03T07:47:55.202Z,19.65
2022-10-03T07:50:59.286Z,19.14
2022-10-03T07:53:43.415Z,19.39
2022-10-03T07:56:25.414Z,19.60
2022-10-03T07:59:05.531Z,19.40
2022-10-03T08:01:49.855Z,19.62
2022-10-03T08:04:51.226Z,20.63
2022-10-03T08:07:34.653Z,20.00
2022-10-03T08:10:23.106Z,19.89
2022-10-03T08:13:10.181Z,20.36
2022-10-03T08:15:53.297Z,19.49
2022-10-03T08:18:37.623Z,19.30
2022-10-03T08:21:11.011Z,19.51
2022-10-03T08:24:11.266Z,19.32
2022-10-03T08:27:17.751Z,20.90
2022-10-03T08:30:15.274Z,20.53
2022-10-03T08:32:58.231Z,21.32
2022-10-03T08:35:40.051Z,20.27
2022-10-03T08:38:46.844Z,20.59
2022-10-03T08:41:52.661Z,20.09
2022-10-03T08:44:46.043Z,20.92
2022-10-03T08:47:35.882Z,21.22
2022-10-03T08:50:54.737Z,21.96
2022-10-03T08:53:44.266Z,21.12
2022-10-03T08:56:15.017Z,20.50
2022-10-03T08:59:20.519Z,21.15
2022-10-03T09:02:29.987Z,20.57
2022-10-03T09:05:26.821Z,20.01
2022-10-03T09:08:28.493Z,19.71
2022-10-03T09:11:27.043Z,19.80
2022-10-03T09:14:31.381Z,20.62
2022-10-03T09:17:07.337Z,21.58
2022-10-03T09:20:08.977Z,21.25
2022-10-03T09:23:00.957Z,20.39
2022-10-03T09:25:42.839Z,20.25
2022-10-03T09:28:45.801Z,21.62
2022-10-03T09:31:26.279Z,21.25
2022-10-03T09:34:21.129Z,21.26
2022-10-03T09:37:13.033Z,22.10
2022-10-03T09:40:27.352Z,22.34
2022-10-03T09:43:09.201Z,22.33
2022-10-03T09:46:08.720Z,21.29
2022-10-03T09:48:51.117Z,20.77
2022-10-03T09:51:27.317Z,20.86
2022-10-03T09:54:35.348Z,21.49
2022-10-03T09:57:40.219Z,20.31
2022-10-03T10:00:27.777Z,21.16
2022-10-03T10:03:18.184Z,21.00
2022-10-03T10:06:12.045Z,21.50
2022-10-03T10:09:04.727Z,20.58
2022-10-03T10:11:46.199Z,20.94
2022-10-03T10:14:51.575Z,21.79
2022-10-03T10:18:07.235Z,21.51
2022-10-03T10:21:00.610Z,21.53
2022-10-03T10:23:42.650Z,21.89
2022-10-03T10:26:45.540Z,22.67
2022-10-03T10:29:34.807Z,21.47
2022-10-03T10:32:31.119Z,20.44
2022-10-03T10:35:28.810Z,21.22
2022-10-03T10:38:32.670Z,22.42
2022-10-03T10:41:34.054Z,22.18
2022-10-03T10:44:47.802Z,21.53
2022-10-03T10:48:06.769Z,22.59
2022-10-03T10:51:14.598Z,21.68
2022-10-03T10:54:21.733Z,21.55
2022-10-03T10:57:18.327Z,21.59
2022-10-03T11:00:09.088Z,21.70
2022-10-03T11:03:22.510Z,21.76
2022-10-03T11:06:53.446Z,20.65
2022-10-03T11:09:58.283Z,20.61
2022-10-03T11:13:11.407Z,21.47
2022-10-03T11:16:00.492Z,22.18
2022-10-03T11:19:34.787Z,22.37
2022-10-03T11:22:35.885Z,20.94
2022-10-03T11:25:31.616Z,22.54
2022-10-03T11:28:28.664Z,22.50
2022-10-03T11:31:47.381Z,22.29
2022-10-03T11:35:03.248Z,22.52
2022-10-03T11:37:41.623Z,22.65
2022-10-03T11:40:33.582Z,22.87
2022-10-03T11:43:33.677Z,23.89
2022-10-03T11:46:17.159Z,24.35
2022-10-03T11:48:48.315Z,23.08
2022-10-03T11:51:20.377Z,23.82
2022-10-03T11:54:03.765Z,23.45
2022-10-03T11:56:45.427Z,22.94
2022-10-03T11:59:34.137Z,22.62
2022-10-03T12:02:16.454Z,22.97
2022-10-03T12:04:52.938Z,23.51
2022-10-03T12:07:58.435Z,22.60
2022-10-03T12:10:39.064Z,22.30
2022-10-03T12:13:13.468Z,22.19
2022-10-03T12:15:43.617Z,22.75
2022-10-03T12:18:16.801Z,21.90
2022-10-03T12:21:08.433Z,22.95
2022-10-03T12:23:51.920Z,22.72
2022-10-03T12:26:29.395Z,23.41
2022-10-03T12:28:58.704Z,23.77
2022-10-03T12:31:30.750Z,23.25
2022-10-03T12:34:02.420Z,23.82
2022-10-03T12:36:32.065Z,23.89
2022-10-03T12:39:08.742Z,23.69
2022-10-03T12:41:58.687Z,23.60
2022-10-03T12:44:37.212Z,23.31
2022-10-03T12:47:32.251Z,23.46
2022-10-03T12:50:17.867Z,23.17
2022-10-03T12:52:54.417Z,23.60
2022-10-03T12:55:28.344Z,23.67
2022-10-03T12:58:03.317Z,23.03
2022-10-03T13:00:35.611Z,23.16
2022-10-03T13:03:17.373Z,23.24
2022-10-03T13:06:07.356Z,22.87
2022-10-03T13:08:44.668Z,22.92
2022-10-03T13:11:29.435Z,22.83
2022-10-03T13:14:08.492Z,23.43
2022-10-03T13:16:38.507Z,23.19
2022-10-03T13:19:11.605Z,23.45
2022-10-03T13:22:03.378Z,23.16
2022-10-03T13:24:38.043Z,23.97
2022-10-03T13:27:23.977Z,24.28
2022-10-03T13:29:57.387Z,23.68
2022-10-03T13:32:31.662Z,23.75
2022-10-03T13:35:31.736Z,23.04
2022-10-03T13:38:15.278Z,23.53
2022-10-03T13:40:47.025Z,23.09
2022-10-03T13:43:18.840Z,22.57
2022-10-03T13:45:50.189Z,22.14
2022-10-03T13:48:21.124Z,22.34
2022-10-03T13:50:56.152Z,22.04
2022-10-03T13:53:48.699Z,22.52
2022-10-03T13:56:22.313Z,22.66
2022-10-03T13:58:56.829Z,22.75
2022-10-03T14:01:38.675Z,23.00
2022-10-03T14:04:28.500Z,23.04
2022-10-03T14:06:59.006Z,23.22
2022-10-03T14:09:41.984Z,24.21
2022-10-03T14:12:28.207Z,23.44
2022-10-03T14:15:25.749Z,24.00
2022-10-03T14:18:00.063Z,23.32
2022-10-03T14:20:31.490Z,23.06
2022-10-03T14:23:11.831Z,23.15
2022-10-03T14:25:42.365Z,23.75
2022-10-03T14:28:12.032Z,23.57
2022-10-03T14:31:05.480Z,23.72
2022-10-03T14:33:42.601Z,22.94
2022-10-03T14:36:25.971Z,22.80
2022-10-03T14:39:08.854Z,22.86
2022-10-03T14:41:45.674Z,23.62
2022-10-03T14:44:17.415Z,23.40
2022-10-03T14:46:50.076Z,23.37
2022-10-03T14:52:26.012Z,24.08
2022-10-03T14:54:56.923Z,24.12
2022-10-03T14:57:47.648Z,23.92
2022-10-03T15:00:27.555Z,23.61
2022-10-03T15:02:56.040Z,23.97
2022-10-03T15:05:36.135Z,23.55
2022-10-03T15:08:14.512Z,23.80
2022-10-03T15:10:43.184Z,23.63
2022-10-03T15:13:12.042Z,24.03
2022-10-03T15:15:41.650Z,23.21
2022-10-03T15:18:16.970Z,23.28
2022-10-03T15:20:47.079Z,23.39
2022-10-03T15:23:21.354Z,23.27
2022-10-03T15:25:53.193Z,23.09
2022-10-03T15:28:24.013Z,22.90
2022-10-03T15:30:54.690Z,22.79
2022-10-03T15:33:29.280Z,22.71
2022-10-03T15:36:05.789Z,22.94
2022-10-03T15:38:35.981Z,22.72
2022-10-03T15:41:10.847Z,23.24
2022-10-03T15:43:47.131Z,22.81
2022-10-03T15:46:27.627Z,23.07
2022-10-03T15:48:56.028Z,22.80
2022-10-03T15:51:27.426Z,23.15
2022-10-03T15:53:59.384Z,22.78
2022-10-03T15:56:31.564Z,22.93
2022-10-03T15:59:04.126Z,22.91
2022-10-03T16:01:38.664Z,22.55
2022-10-03T16:04:13.381Z,22.43
2022-10-03T16:06:47.852Z,22.61
2022-10-03T16:09:19.974Z,22.57
2022-10-03T16:11:55.710Z,22.60
2022-10-03T16:14:25.141Z,22.38
2022-10-03T16:16:56.562Z,22.11
2022-10-03T16:19:35.263Z,21.80
2022-10-03T16:22:12.319Z,21.83
2022-10-03T16:24:44.505Z,21.48
2022-10-03T16:27:16.851Z,20.89
2022-10-03T16:29:50.040Z,20.95
2022-10-03T16:32:20.239Z,20.94
2022-10-03T16:34:49.801Z,20.68
2022-10-03T16:37:21.749Z,20.35
2022-10-03T16:39:56.658Z,20.46
2022-10-03T16:42:28.960Z,20.38
2022-10-03T16:45:01.564Z,20.27
2022-10-03T16:47:34.315Z,20.26
2022-10-03T16:50:20.298Z,19.76
2022-10-03T16:52:53.031Z,20.07
2022-10-03T16:55:24.270Z,19.87
2022-10-03T16:57:56.964Z,19.83
2022-10-03T17:00:30.081Z,20.09
2022-10-03T17:02:58.492Z,19.25
2022-10-03T17:05:27.096Z,19.54
2022-10-03T17:08:06.625Z,19.59
2022-10-03T17:10:47.739Z,19.65
2022-10-03T17:13:17.545Z,19.80
2022-10-03T17:15:49.793Z,20.01
2022-10-03T17:18:25.813Z,20.05
2022-10-03T17:20:57.097Z,19.99
2022-10-03T17:23:33.958Z,19.95
2022-10-03T17:26:06.589Z,19.81
2022-10-03T17:28:44.583Z,19.76
2022-10-03T17:31:28.843Z,19.67
2022-10-03T17:34:02.740Z,19.52
2022-10-03T17:36:44.979Z,19.51
2022-10-03T17:39:23.558Z,19.50
2022-10-03T17:41:54.149Z,19.43
2022-10-03T17:44:26.655Z,19.32
2022-10-03T17:46:59.761Z,19.17
2022-10-03T17:49:43.615Z,19.15
2022-10-03T17:52:16.073Z,19.12
2022-10-03T17:54:49.298Z,19.11
2022-10-03T17:57:23.579Z,18.70
2022-10-03T17:59:58.370Z,18.63
2022-10-03T18:02:34.108Z,18.52
2022-10-03T18:05:12.039Z,18.47
2022-10-03T18:07:43.095Z,18.43
2022-10-03T18:10:21.762Z,18.30
2022-10-03T18:12:53.762Z,18.19
2022-10-03T18:15:27.800Z,18.23
2022-10-03T18:18:22.259Z,18.19
2022-10-03T18:20:52.211Z,18.30
2022-10-03T18:23:49.850Z,18.06
2022-10-03T18:26:24.999Z,17.72
2022-10-03T18:29:01.702Z,17.82
2022-10-03T18:31:34.354Z,17.43
2022-10-03T18:34:04.748Z,17.72
2022-10-03T18:36:35.860Z,17.69
2022-10-03T18:39:08.571Z,17.33
2022-10-03T18:41:45.634Z,17.18
2022-10-03T18:44:16.200Z,16.97
2022-10-03T18:46:47.750Z,16.86
2022-10-03T18:49:33.349Z,16.84
2022-10-03T18:52:08.747Z,17.25
2022-10-03T18:54:45.846Z,17.08
2022-10-03T18:57:20.926Z,16.32
2022-10-03T18:59:53.689Z,16.52
2022-10-03T19:02:26.796Z,17.00
2022-10-03T19:04:58.042Z,16.96
2022-10-03T19:07:28.003Z,16.67
2022-10-03T19:10:21.469Z,16.94
2022-10-03T19:12:55.087Z,16.25
2022-10-03T19:15:33.524Z,17.06
2022-10-03T19:18:10.403Z,17.16
2022-10-03T19:20:40.076Z,17.07
2022-10-03T19:23:12.490Z,17.09
2022-10-03T19:25:42.870Z,17.14
2022-10-03T19:28:20.491Z,16.24
2022-10-03T19:31:00.017Z,16.48
2022-10-03T19:33:28.959Z,16.04
2022-10-03T19:36:01.514Z,16.19
2022-10-03T19:38:32.989Z,16.29
2022-10-03T19:41:05.794Z,16.48
2022-10-03T19:43:40.239Z,16.25
2022-10-03T19:46:24.726Z,15.96
2022-10-03T19:49:03.805Z,16.14
2022-10-03T19:51:32.219Z,16.15
2022-10-03T19:54:00.979Z,16.23
2022-10-03T19:56:33.274Z,16.11
2022-10-03T19:59:05.995Z,16.03
2022-10-03T20:01:43.124Z,15.90
2022-10-03T20:04:11.750Z,15.86
2022-10-03T20:06:41.917Z,15.62
2022-10-03T20:09:20.975Z,15.62
2022-10-03T20:11:51.491Z,15.47
2022-10-03T20:14:26.818Z,15.97
2022-10-03T20:16:56.912Z,15.82
2022-10-03T20:19:27.145Z,15.80
2022-10-03T20:21:57.106Z,15.72
2022-10-03T20:24:32.277Z,15.78
2022-10-03T20:27:10.073Z,15.44
2022-10-03T20:29:44.194Z,15.45
2022-10-03T20:32:15.968Z,15.08
2022-10-03T20:34:50.534Z,15.75
2022-10-03T20:37:28.187Z,15.43
2022-10-03T20:40:04.027Z,15.56
2022-10-03T20:42:32.566Z,15.33
2022-10-03T20:45:04.012Z,14.98
2022-10-03T20:47:46.160Z,15.13
2022-10-03T20:50:20.659Z,14.73
2022-10-03T20:52:54.303Z,14.55
2022-10-03T20:55:25.146Z,15.17
2022-10-03T20:58:00.948Z,14.94
2022-10-03T21:00:31.638Z,14.77
2022-10-03T21:03:02.810Z,14.92
2022-10-03T21:05:36.332Z,14.36
2022-10-03T21:08:06.718Z,14.88
2022-10-03T21:10:38.295Z,15.08
2022-10-03T21:13:08.797Z,15.01
2022-10-03T21:15:44.033Z,14.69
2022-10-03T21:18:20.868Z,14.73
2022-10-03T21:20:51.604Z,14.54
2022-10-03T21:23:23.833Z,14.78
2022-10-03T21:25:55.142Z,14.48
2022-10-03T21:28:26.757Z,14.42
2022-10-03T21:31:10.732Z,14.68
2022-10-03T21:33:42.794Z,14.54
2022-10-03T21:36:14.449Z,14.49
2022-10-03T21:38:44.994Z,14.54
2022-10-03T21:41:28.054Z,14.48
2022-10-03T21:43:59.504Z,14.56
2022-10-03T21:46:37.458Z,14.23
2022-10-03T21:49:23.197Z,14.05
2022-10-03T21:52:14.030Z,14.37
2022-10-03T21:54:53.986Z,14.45
2022-10-03T21:57:27.047Z,13.96
2022-10-03T22:00:11.750Z,13.80
2022-10-03T22:02:49.624Z,14.11
2022-10-03T22:05:25.801Z,14.07
2022-10-03T22:07:54.214Z,14.15
2022-10-03T22:10:24.262Z,14.25
2022-10-03T22:12:54.354Z,14.24
2022-10-03T22:15:28.600Z,14.26
2022-10-03T22:18:00.983Z,14.21
2022-10-03T22:20:31.171Z,14.09
2022-10-03T22:23:11.863Z,13.93
2022-10-03T22:25:44.206Z,13.91
2022-10-03T22:28:19.931Z,14.04
2022-10-03T22:30:56.286Z,14.00
2022-10-03T22:33:35.674Z,13.91
2022-10-03T22:36:04.850Z,13.59
2022-10-03T22:38:35.653Z,13.47
2022-10-03T22:41:07.398Z,13.65
2022-10-03T22:43:37.303Z,12.83
2022-10-03T22:46:06.835Z,13.16
2022-10-03T22:48:40.158Z,13.41
2022-10-03T22:51:10.876Z,13.18
2022-10-03T22:53:40.455Z,13.54
2022-10-03T22:56:33.990Z,13.64
2022-10-03T22:59:03.311Z,13.13
2022-10-03T23:01:32.186Z,13.20
2022-10-03T23:04:02.170Z,13.10
2022-10-03T23:06:41.279Z,13.42
2022-10-03T23:09:13.706Z,13.51
2022-10-03T23:11:44.032Z,13.44
2022-10-03T23:14:16.333Z,13.52
2022-10-03T23:16:52.473Z,13.44
2022-10-03T23:19:32.959Z,13.45
2022-10-03T23:22:01.559Z,12.86
2022-10-03T23:24:31.677Z,12.89
2022-10-03T23:27:30.839Z,12.87
2022-10-03T23:30:35.218Z,12.83
2022-10-03T23:33:03.555Z,12.11
2022-10-03T23:35:37.967Z,12.61
2022-10-03T23:38:48.150Z,12.89
2022-10-03T23:41:21.538Z,13.09
2022-10-03T23:43:51.159Z,12.86
2022-10-03T23:46:21.155Z,12.97
2022-10-03T23:48:51.263Z,12.46
2022-10-03T23:51:22.993Z,12.51
2022-10-03T23:53:52.864Z,12.80
2022-10-03T23:56:35.199Z,12.19
2022-10-03T23:59:12.540Z,12.54
